Aviation Digital Data Service (ADDS)

Output produced by METARs form (0439 UTC 03 September 2014)
found at http://www.aviationweather.gov/adds/metars/
 
KLNS 030353Z AUTO 28005KT 10SM CLR 22/19 A2990 RMK AO2 RAE24 SLP123 P0000 T02170194
KLNS 030253Z 27008KT 10SM -RA FEW043 SCT055 SCT090 22/20 A2991 RMK AO2 RAB50 SLP124 P0000 60000 T02220200 51018
KLNS 030153Z 25007KT 10SM BKN055 23/19 A2990 RMK AO2 SLP123 T02280194
KLNS 030053Z 24006KT 10SM CLR 23/19 A2990 RMK AO2 SLP121 T02280194
KLNS 022353Z 19006KT 10SM FEW110 22/20 A2985 RMK AO2 LTG DSNT SE RAE39 SLP106 P0004 60005 T02220200 10317 20222 58004
KLNS 022323Z 24003KT 6SM -RA FEW110 23/19 A2985 RMK AO2 LTG DSNT E-S P0003 T02280194
KLNS 022303Z 22007G17KT 8SM VCTS -RA FEW036 FEW047 SCT110 23/19 A2985 RMK AO2 LTG DSNT ALQDS P0001 T02280194
KLNS 022253Z 24015G28KT 10SM -RA FEW036 SCT085 BKN120 24/19 A2987 RMK AO2 PK WND 22032/2243 LTG DSNT ALQDS RAB46 SLP112 P0000 T02390189
KLNS 022153Z 27006KT 10SM FEW040 25/22 A2986 RMK AO2 LTG DSNT SW RAB17E41 TSB16E35 SLP109 P0001 T02500217
KLNS 022151Z 27006KT 10SM FEW040 25/22 A2987 RMK AO2 LTG DSNT SW RAB17E41 TSB16E35 P0001
KLNS 022141Z 28005KT 9SM VCTS FEW039 SCT048 SCT055 25/22 A2986 RMK AO2 LTG DSNT N AND SW RAB17E41 TSB16E35 P0001 T02500217
KLNS 022122Z 23009KT 6SM TSRA SCT048 BKN060 BKN075 28/21 A2985 RMK AO2 LTG DSNT NW RAB17 TSB16 P0001 T02830211
KLNS 022105Z 22007KT 10SM VCTS FEW065 SCT080 30/19 A2985 RMK AO2 LTG DSNT SW-NW T03000194
KLNS 022053Z 23010KT 10SM FEW070 30/20 A2985 RMK AO2 LTG DSNT W SLP104 T03000200 58025
KLNS 021953Z 23010G14KT 10SM SCT050 31/20 A2987 RMK AO2 SLP113 T03110200
KLNS 021853Z 25008KT 10SM BKN075 31/20 A2990 RMK AO2 SLP121 T03110200
KLNS 021753Z 28009KT 10SM FEW046 BKN070 31/20 A2992 RMK AO2 SLP129 T03060200 10311 20222 58015
KLNS 021653Z 25006KT 10SM FEW050 SCT060 29/20 A2994 RMK AO2 SLP136 T02890200
KLNS 021553Z 29008KT 10SM SCT038 BKN047 29/21 A2996 RMK AO2 SLP143 T02940211
KLNS 021453Z 25007KT 10SM SCT100 28/21 A2997 RMK AO2 SLP145 T02830211 53001
KLNS 021353Z 28004KT 10SM CLR 27/22 A2997 RMK AO2 SLP144 T02720217
KLNS 021253Z 00000KT 8SM CLR 25/22 A2997 RMK AO2 SLP144 T02500222
KLNS 021153Z 00000KT 7SM CLR 22/22 A2997 RMK AO2 SLP144 70054 T02220217 10222 20206
KLNS 021103Z 00000KT 3/4SM BR VV003 21/21 A2995 RMK AO2 T02110211 $
KLNS 021053Z 00000KT 3/4SM BR CLR 21/21 A2995 RMK AO2 SLP139 T02110211 $
KLNS 020953Z 00000KT 1/4SM FG CLR 21/21 A2994 RMK AO2 SLP134 T02060206 $
KLNS 020853Z AUTO 00000KT 1/4SM FG VV002 21/21 A2993 RMK AO2 SLP133 T02110206 56006 $
KLNS 020817Z AUTO 00000KT 1/4SM FG VV002 21/21 A2993 RMK AO2 T02110206 $
KLNS 020800Z AUTO 00000KT 1/4SM FG CLR 21/21 A2993 RMK AO2 T02110206 $
KLNS 020753Z AUTO 00000KT 1/2SM FG CLR 21/21 A2994 RMK AO2 SLP133 T02110206 $
KLNS 020747Z AUTO 00000KT 3/4SM BR CLR 21/21 A2994 RMK AO2 $
KLNS 020743Z AUTO 06003KT 1SM BR VV003 21/21 A2994 RMK AO2 T02110206 $
KLNS 020716Z AUTO 00000KT 2SM BR FEW003 22/21 A2994 RMK AO2 T02170211 $
KLNS 020706Z AUTO 00000KT 1 3/4SM BR CLR 22/21 A2994 RMK AO2 T02170211 $
KLNS 020653Z AUTO 00000KT 4SM BR CLR 22/21 A2994 RMK AO2 SLP135 T02170211 $
KLNS 020553Z AUTO 13003KT 5SM BR SCT060 22/21 A2995 RMK AO2 SLP139 60005 T02220211 10250 20217 58005 $
KLNS 020453Z AUTO 21003KT 10SM CLR 23/22 A2995 RMK AO2 PK WND 33029/0417 RAB17E33 SLP140 P0005 T02330217 403060211 $
KLNS 020441Z AUTO 23003KT 10SM VCTS FEW039 SCT060 24/21 A2996 RMK AO2 PK WND 33029/0417 RAB17E33 P0005 T02440211 $
KLNS 020418Z AUTO 32017G29KT 3SM -RA BR SCT039 SCT060 BKN075 23/22 A2997 RMK AO2 PK WND 33029/0417 RAB17 P0002 T02280217 $
KLNS 020407Z AUTO 00000KT 1 3/4SM BR SCT080 SCT090 23/22 A2997 RMK AO2 T02280222 $
KLNS 020353Z AUTO 00000KT 6SM BR CLR 23/22 A2997 RMK AO2 SLP144 T02280222 $
KLNS 020253Z 00000KT 8SM CLR 23/22 A2997 RMK AO2 SLP144 60000 T02280222 50001 $
KLNS 020153Z 00000KT 10SM CLR 23/22 A2997 RMK AO2 SLP146 T02330222 $
KLNS 020053Z 07004KT 6SM BR CLR 23/23 A2997 RMK AO2 LTG DSNT E AND SE RAE12 TSE2355 SLP144 P0000 T02330228 $
KLNS 020050Z 06004KT 6SM BR CLR 24/22 A2996 RMK AO2 LTG DSNT E AND SE RAE12 TSE2355 P0000 $
KLNS 020005Z 09003KT 6SM VCTS -RA BR FEW017 SCT027 BKN037 24/23 A2995 RMK AO2 LTG DSNT NE TSE2355 P0000 T02440228 $
KLNS 012355Z 15005KT 6SM VCTS -RA BR FEW018 BKN025 BKN039 24/23 A2995 RMK AO2 TSE55 P0000 T02440228 $
KLNS 012353Z 15005KT 2 1/2SM -TSRA BR BKN023 BKN031 BKN080 24/22 A2995 RMK AO2 RAB24 TSB31 SLP138 P0049 60049 T02440222 10306 20244 53001 $
KLNS 012343Z 28003KT 2 1/2SM +TSRA BR FEW019 BKN028 OVC037 24/22 A2995 RMK AO2 RAB24 TSB31 P0047 T02440222 $
KLNS 012331Z 20005KT 2 1/2SM +TSRA OVC036 26/23 A2996 RMK AO2 RAB24 TSB31 P0012 T02610233 $
KLNS 012253Z 00000KT 10SM FEW041 BKN060 29/22 A2994 RMK AO2 SLP135 T02890217 $
KLNS 012153Z VRB05KT 10SM CLR 31/21 A2993 RMK AO2 SLP133 T03060211 $
KLNS 012053Z 00000KT 10SM FEW038 SCT070 30/21 A2995 RMK AO2 SLP137 60000 T03000206 58015 $
KLNS 011953Z 27009KT 10SM CLR 30/21 A2996 RMK AO2 RAE02 SLP143 P0000 T03000211 $
KLNS 011853Z 30010KT 10SM -RA FEW043 BKN060 OVC075 28/21 A2998 RMK AO2 RAB47 SLP147 P0000 T02780211 $
KLNS 011753Z 21004KT 10SM FEW031 SCT050 28/21 A2999 RMK AO2 SLP152 T02830206 10300 20222 58013 $
KLNS 011653Z 21005KT 10SM SCT024 BKN032 28/21 A3000 RMK AO2 SLP155 T02830206 $